createdAt,value
2018-03-23T08:15:21.978Z,4.53
2018-03-23T08:18:21.463Z,4.53
2018-03-23T08:27:17.608Z,3.57
2018-03-23T08:30:01.934Z,4.03
2018-03-23T08:40:41.655Z,3.70
2018-03-23T08:43:36.830Z,4.10
2018-03-23T08:46:04.623Z,3.63
2018-03-23T08:54:43.762Z,4.30
2018-03-23T08:57:12.802Z,3.20
2018-03-23T08:59:42.083Z,3.23
2018-03-23T09:16:24.342Z,4.30
2018-03-23T09:18:52.113Z,3.47
2018-03-23T09:38:55.384Z,3.50
2018-03-23T09:41:23.127Z,4.20
2018-03-23T09:43:50.968Z,4.00
2018-03-23T09:46:18.719Z,4.35
2018-03-23T09:48:46.454Z,4.00
2018-03-23T09:51:14.558Z,3.90
2018-03-23T09:53:42.287Z,3.70
2018-03-23T09:56:10.052Z,4.20
2018-03-23T09:58:37.809Z,4.80
2018-03-23T10:01:05.556Z,4.73
2018-03-23T10:03:33.292Z,3.80
2018-03-23T10:06:01.034Z,3.27
2018-03-23T10:08:29.526Z,3.10
2018-03-23T10:10:57.284Z,2.93
2018-03-23T10:13:25.777Z,3.23
2018-03-23T10:15:53.513Z,3.20
2018-03-23T10:18:22.011Z,3.37
2018-03-23T10:20:50.520Z,3.43
2018-03-23T10:23:18.267Z,2.77
2018-03-23T10:25:46.006Z,2.70
2018-03-23T10:28:14.509Z,3.40
2018-03-23T10:30:42.254Z,3.70
2018-03-23T10:33:10.901Z,3.70
2018-03-23T10:35:38.653Z,2.83
2018-03-23T10:38:06.405Z,3.53
2018-03-23T10:40:34.145Z,3.47
2018-03-23T10:43:01.878Z,4.00
2018-03-23T10:45:30.398Z,3.40
2018-03-23T10:47:58.134Z,2.60
2018-03-23T10:50:26.623Z,3.93
2018-03-23T10:52:55.114Z,3.30
2018-03-23T10:55:22.898Z,3.50
2018-03-23T10:57:50.632Z,4.97
2018-03-23T11:03:20.767Z,4.13
2018-03-23T11:05:49.289Z,3.20
2018-03-23T11:08:17.026Z,3.90
2018-03-23T11:10:44.753Z,3.93
2018-03-23T11:13:12.498Z,4.23
2018-03-23T11:15:40.239Z,4.00
2018-03-23T11:18:08.010Z,3.63
2018-03-23T11:27:21.632Z,3.77
2018-03-23T11:29:50.168Z,3.40
2018-03-23T11:32:18.148Z,4.03
2018-03-23T12:13:18.313Z,5.70
2018-03-23T12:22:13.872Z,4.63
2018-03-23T12:24:41.612Z,5.03
2018-03-23T12:27:09.352Z,4.83
2018-03-23T12:29:38.752Z,4.80
2018-03-23T12:38:58.389Z,5.80
2018-03-23T12:41:26.142Z,4.97
2018-03-23T12:43:53.887Z,4.77
2018-03-23T12:46:22.411Z,4.63
2018-03-23T13:01:58.015Z,4.07
2018-03-23T13:07:49.743Z,4.60
2018-03-23T13:10:17.523Z,4.27
2018-03-23T13:12:45.265Z,4.83
2018-03-23T13:15:13.060Z,4.30
2018-03-23T13:17:40.832Z,3.90
2018-03-23T13:20:08.606Z,3.67
2018-03-23T13:22:36.430Z,3.87
2018-03-23T13:27:39.085Z,4.50
2018-03-23T13:30:06.835Z,3.70
2018-03-23T13:32:34.577Z,3.50
2018-03-23T13:35:02.342Z,3.60
2018-03-23T13:37:30.158Z,4.23
2018-03-23T13:39:58.047Z,4.10
2018-03-23T13:42:25.801Z,3.77
2018-03-23T13:44:53.567Z,3.47
2018-03-23T13:47:22.075Z,3.67
2018-03-23T13:49:49.819Z,3.67
2018-03-23T13:52:18.328Z,3.20
2018-03-23T13:54:46.131Z,3.50
2018-03-23T13:57:13.896Z,3.67
2018-03-23T14:02:45.908Z,4.13
2018-03-23T14:05:14.424Z,4.30
2018-03-23T14:07:42.201Z,4.53
2018-03-23T14:10:09.979Z,4.10
2018-03-23T14:12:37.731Z,5.00
2018-03-23T14:15:05.484Z,4.53
2018-03-23T14:17:33.264Z,4.90
2018-03-23T14:20:01.040Z,4.53
2018-03-23T14:22:28.780Z,4.03
2018-03-23T14:24:56.532Z,5.00
2018-03-23T14:27:24.275Z,5.20
2018-03-23T14:29:52.039Z,5.30
2018-03-23T14:32:20.552Z,4.07
2018-03-23T14:34:48.340Z,4.20
2018-03-23T14:44:32.890Z,9.10
2018-03-23T14:56:54.848Z,4.70
2018-03-23T15:26:31.586Z,6.00
2018-03-23T15:42:35.447Z,6.47
2018-03-23T15:48:36.478Z,7.30
2018-03-23T15:54:34.734Z,7.93
2018-03-23T15:57:02.477Z,7.17
2018-03-23T15:59:30.229Z,7.40
2018-03-23T16:12:36.256Z,5.90
2018-03-23T16:15:04.053Z,7.10
2018-03-23T16:55:11.033Z,7.33
2018-03-23T17:04:10.111Z,9.15
2018-03-23T17:37:12.058Z,17.77
2018-03-23T18:54:42.884Z,7.43
2018-03-23T18:57:10.784Z,8.13
2018-03-23T18:59:44.542Z,7.30
2018-03-23T19:18:04.404Z,7.73
2018-03-23T19:35:30.652Z,8.43
2018-03-23T19:59:21.521Z,8.23
2018-03-23T20:02:13.805Z,8.17
2018-03-23T20:04:53.626Z,8.00
2018-03-23T20:10:37.849Z,7.80
2018-03-23T20:25:15.275Z,8.40
2018-03-23T20:37:10.762Z,6.62
2018-03-23T20:39:44.773Z,6.70
2018-03-23T20:42:16.109Z,6.00
2018-03-23T20:45:10.539Z,6.83
2018-03-23T20:50:37.305Z,4.03
2018-03-23T20:53:05.233Z,5.40
2018-03-23T20:55:34.822Z,5.50
2018-03-23T20:58:10.950Z,5.27
2018-03-23T21:00:51.248Z,6.03
2018-03-23T21:03:20.185Z,7.20
2018-03-23T21:05:47.983Z,6.30
2018-03-23T21:28:48.939Z,8.53
2018-03-23T21:38:11.731Z,4.60
2018-03-23T21:40:40.079Z,4.10
2018-03-23T21:43:07.862Z,4.00
2018-03-23T21:45:35.582Z,3.83
2018-03-23T21:48:04.093Z,3.80
2018-03-23T21:50:32.397Z,3.47
2018-03-23T21:53:00.143Z,3.67
2018-03-23T21:55:28.807Z,3.00
2018-03-23T21:57:56.581Z,3.40
2018-03-23T22:00:24.370Z,3.03
2018-03-23T22:02:52.154Z,3.50
2018-03-23T22:05:19.911Z,2.80
2018-03-23T22:07:48.088Z,3.37
2018-03-23T22:10:16.665Z,3.17
2018-03-23T22:12:45.245Z,3.93
2018-03-23T22:15:13.001Z,4.00
2018-03-23T22:17:40.757Z,3.30
2018-03-23T22:20:08.542Z,4.17
2018-03-23T22:22:36.402Z,3.90
2018-03-23T22:25:04.519Z,3.17
2018-03-23T22:27:33.070Z,2.57
2018-03-23T22:30:00.901Z,2.80
2018-03-23T22:32:28.626Z,2.27
2018-03-23T22:34:57.875Z,2.30
2018-03-23T22:37:25.689Z,3.20
2018-03-23T22:39:53.470Z,3.00
2018-03-23T22:42:21.240Z,2.93
2018-03-23T22:44:49.181Z,2.73
2018-03-23T22:47:18.402Z,2.80
2018-03-23T22:49:46.332Z,3.20
2018-03-23T22:52:14.850Z,3.10
2018-03-23T22:54:42.607Z,3.50
2018-03-23T22:57:11.117Z,3.20
2018-03-23T22:59:38.854Z,3.00
2018-03-23T23:02:07.368Z,2.63
2018-03-23T23:04:35.107Z,2.47
2018-03-23T23:07:02.941Z,2.83
2018-03-23T23:09:30.743Z,2.63
2018-03-23T23:11:59.591Z,2.00
2018-03-23T23:14:29.183Z,2.40
2018-03-23T23:16:56.975Z,4.70
2018-03-23T23:19:26.946Z,2.70
2018-03-23T23:21:54.743Z,2.50
2018-03-23T23:24:22.479Z,2.67
2018-03-23T23:26:50.751Z,2.20
2018-03-23T23:29:18.568Z,3.00
2018-03-23T23:31:47.946Z,2.37
2018-03-23T23:34:16.588Z,2.00
2018-03-23T23:36:44.763Z,2.70
2018-03-23T23:39:14.387Z,3.00
2018-03-23T23:41:42.836Z,1.83
2018-03-23T23:44:11.539Z,1.80
2018-03-23T23:46:39.801Z,1.30
2018-03-23T23:49:09.102Z,1.70
2018-03-23T23:51:37.400Z,1.80
2018-03-23T23:54:05.163Z,1.73
2018-03-23T23:56:32.926Z,1.90
2018-03-23T23:59:01.543Z,2.83
